createdAt,value
2023-04-11T00:01:08.525Z,11.11
2023-04-11T00:03:39.582Z,11.15
2023-04-11T00:06:06.562Z,11.13
2023-04-11T00:08:33.194Z,11.04
2023-04-11T00:10:59.747Z,10.99
2023-04-11T00:13:26.680Z,10.89
2023-04-11T00:15:55.693Z,10.84
2023-04-11T00:18:23.107Z,10.81
2023-04-11T00:20:49.772Z,10.81
2023-04-11T00:23:16.447Z,10.74
2023-04-11T00:25:42.941Z,10.55
2023-04-11T00:28:09.811Z,10.45
2023-04-11T00:30:36.412Z,10.20
2023-04-11T00:33:06.025Z,10.30
2023-04-11T00:35:35.224Z,10.12
2023-04-11T00:38:02.507Z,10.11
2023-04-11T00:40:29.175Z,10.11
2023-04-11T00:42:58.927Z,10.12
2023-04-11T00:45:26.036Z,9.94
2023-04-11T00:47:53.359Z,9.86
2023-04-11T00:50:23.050Z,9.82
2023-04-11T00:52:50.952Z,9.66
2023-04-11T00:55:17.459Z,9.72
2023-04-11T00:57:46.640Z,9.67
2023-04-11T01:00:15.013Z,9.62
2023-04-11T01:02:48.403Z,9.55
2023-04-11T01:05:15.445Z,9.28
2023-04-11T01:07:43.650Z,9.43
2023-04-11T01:10:10.523Z,9.41
2023-04-11T01:12:37.859Z,9.40
2023-04-11T01:15:05.024Z,9.34
2023-04-11T01:17:32.815Z,9.49
2023-04-11T01:19:59.566Z,9.32
2023-04-11T01:22:26.592Z,9.27
2023-04-11T01:24:53.261Z,9.21
2023-04-11T01:27:19.973Z,9.25
2023-04-11T01:29:47.871Z,9.24
2023-04-11T01:32:14.988Z,9.26
2023-04-11T01:34:42.405Z,9.29
2023-04-11T01:37:09.372Z,9.31
2023-04-11T01:39:36.200Z,9.34
2023-04-11T01:42:03.571Z,9.30
2023-04-11T01:44:31.149Z,9.37
2023-04-11T01:46:57.737Z,9.39
2023-04-11T01:49:24.425Z,9.47
2023-04-11T01:51:51.094Z,9.58
2023-04-11T01:54:17.867Z,9.56
2023-04-11T01:56:44.487Z,9.51
2023-04-11T01:59:11.088Z,9.52
2023-04-11T02:01:38.175Z,9.54
2023-04-11T02:04:04.853Z,9.54
2023-04-11T02:06:32.227Z,9.51
2023-04-11T02:08:58.765Z,9.62
2023-04-11T02:11:25.423Z,9.53
2023-04-11T02:13:53.032Z,9.56
2023-04-11T02:16:21.241Z,9.53
2023-04-11T02:18:47.803Z,9.47
2023-04-11T02:21:14.430Z,9.45
2023-04-11T02:23:40.952Z,9.45
2023-04-11T02:26:07.874Z,9.42
2023-04-11T02:28:34.612Z,9.46
2023-04-11T02:31:02.416Z,9.51
2023-04-11T02:33:30.115Z,9.48
2023-04-11T02:35:56.936Z,9.49
2023-04-11T02:38:23.485Z,9.52
2023-04-11T02:40:50.294Z,9.46
2023-04-11T02:43:16.871Z,9.58
2023-04-11T02:45:43.472Z,9.50
2023-04-11T02:48:10.083Z,9.47
2023-04-11T02:50:36.713Z,9.44
2023-04-11T02:53:03.497Z,9.38
2023-04-11T02:55:30.642Z,9.33
2023-04-11T02:57:57.191Z,9.37
2023-04-11T03:00:23.900Z,9.15
2023-04-11T03:02:50.644Z,9.12
2023-04-11T03:05:17.245Z,9.15
2023-04-11T03:07:44.486Z,9.06
2023-04-11T03:10:11.223Z,9.05
2023-04-11T03:12:38.036Z,8.99
2023-04-11T03:15:04.885Z,8.93
2023-04-11T03:17:31.455Z,8.94
2023-04-11T03:19:58.222Z,8.92
2023-04-11T03:22:24.757Z,8.87
2023-04-11T03:24:51.677Z,8.86
2023-04-11T03:27:18.359Z,8.85
2023-04-11T03:29:44.997Z,8.80
2023-04-11T03:32:11.660Z,8.75
2023-04-11T03:34:38.205Z,8.74
2023-04-11T03:37:05.012Z,8.75
2023-04-11T03:39:31.497Z,8.76
2023-04-11T03:41:58.428Z,8.73
2023-04-11T03:44:24.907Z,8.76
2023-04-11T03:46:51.582Z,8.75
2023-04-11T03:49:18.359Z,8.75
2023-04-11T03:51:45.301Z,8.72
2023-04-11T03:54:11.755Z,8.54
2023-04-11T03:56:38.373Z,8.70
2023-04-11T03:59:05.019Z,8.70
2023-04-11T04:01:32.726Z,8.76
2023-04-11T04:04:00.897Z,8.72
2023-04-11T04:06:28.635Z,8.77
2023-04-11T04:08:55.468Z,8.71
2023-04-11T04:11:21.938Z,8.74
2023-04-11T04:13:49.288Z,8.71
2023-04-11T04:16:18.260Z,8.56
2023-04-11T04:18:45.207Z,8.58
2023-04-11T04:21:11.903Z,8.61
2023-04-11T04:23:39.568Z,8.63
2023-04-11T04:26:06.373Z,8.63
2023-04-11T04:28:32.970Z,8.64
2023-04-11T04:30:59.564Z,8.63
2023-04-11T04:33:27.631Z,8.64
2023-04-11T04:36:00.442Z,8.57
2023-04-11T04:38:29.153Z,8.58
2023-04-11T04:40:55.627Z,8.62
2023-04-11T04:43:23.513Z,8.61
2023-04-11T04:45:50.192Z,8.55
2023-04-11T04:48:17.550Z,8.54
2023-04-11T04:50:45.905Z,8.52
2023-04-11T04:53:12.494Z,8.50
2023-04-11T04:55:39.106Z,8.53
2023-04-11T04:58:05.858Z,8.50
2023-04-11T05:00:33.687Z,8.52
2023-04-11T05:03:00.683Z,8.50
2023-04-11T05:05:27.578Z,8.46
2023-04-11T05:07:54.219Z,8.51
2023-04-11T05:10:20.861Z,8.53
2023-04-11T05:12:51.134Z,8.51
2023-04-11T05:15:17.853Z,8.51
2023-04-11T05:17:46.279Z,8.49
2023-04-11T05:20:13.776Z,8.49
2023-04-11T05:22:40.640Z,8.43
2023-04-11T05:25:09.128Z,8.46
2023-04-11T05:27:35.660Z,8.44
2023-04-11T05:30:02.494Z,8.50
2023-04-11T05:32:29.006Z,8.47
2023-04-11T05:34:59.109Z,8.52
2023-04-11T05:37:26.263Z,8.55
2023-04-11T05:39:53.421Z,8.58
2023-04-11T05:42:20.368Z,8.68
2023-04-11T05:44:46.934Z,8.58
2023-04-11T05:47:13.725Z,8.68
2023-04-11T05:49:40.292Z,8.56
2023-04-11T05:52:10.071Z,8.56
2023-04-11T05:54:37.915Z,8.75
2023-04-11T05:57:04.564Z,8.87
2023-04-11T05:59:32.205Z,8.82
2023-04-11T06:01:59.235Z,8.82
2023-04-11T06:04:26.318Z,8.85
2023-04-11T06:06:53.625Z,9.03
2023-04-11T06:09:20.653Z,9.39
2023-04-11T06:11:47.366Z,9.31
2023-04-11T06:14:14.072Z,9.31
2023-04-11T06:16:41.766Z,9.36
2023-04-11T06:19:08.249Z,9.72
2023-04-11T06:21:34.899Z,9.53
2023-04-11T06:24:05.968Z,9.53
2023-04-11T06:26:32.539Z,9.82
2023-04-11T06:28:59.150Z,9.77
2023-04-11T06:31:26.440Z,10.15
2023-04-11T06:33:53.578Z,10.11
2023-04-11T06:36:20.453Z,10.47
2023-04-11T06:38:47.135Z,10.01
2023-04-11T06:41:15.649Z,10.01
2023-04-11T06:43:42.356Z,10.99
2023-04-11T06:46:12.158Z,10.90
2023-04-11T06:48:39.261Z,10.34
2023-04-11T06:51:05.964Z,11.18
2023-04-11T06:53:32.552Z,11.21
2023-04-11T06:56:00.972Z,11.71
2023-04-11T06:58:27.633Z,11.43
2023-04-11T07:00:54.402Z,11.21
2023-04-11T07:03:21.122Z,12.28
2023-04-11T07:05:47.667Z,11.94
2023-04-11T07:08:14.798Z,11.71
2023-04-11T07:10:41.927Z,12.50
2023-04-11T07:13:08.508Z,12.50
2023-04-11T07:15:35.129Z,11.82
2023-04-11T07:18:01.799Z,11.52
2023-04-11T07:20:28.676Z,12.54
2023-04-11T07:22:56.908Z,11.50
2023-04-11T07:25:26.188Z,12.62
2023-04-11T07:27:53.181Z,13.53
2023-04-11T07:30:19.657Z,12.73
2023-04-11T07:32:46.729Z,11.90
2023-04-11T07:35:13.742Z,12.91
2023-04-11T07:37:42.547Z,13.64
2023-04-11T07:40:12.140Z,13.69
2023-04-11T07:42:38.716Z,13.10
2023-04-11T07:45:06.006Z,12.17
2023-04-11T07:47:32.867Z,12.46
2023-04-11T07:50:02.125Z,11.95
2023-04-11T07:52:28.836Z,12.89
2023-04-11T07:54:56.122Z,13.66
2023-04-11T07:57:22.733Z,13.53
2023-04-11T07:59:49.196Z,14.72
2023-04-11T08:02:15.903Z,13.78
2023-04-11T08:04:42.794Z,13.72
2023-04-11T08:07:09.425Z,14.43
2023-04-11T08:09:36.118Z,13.35
2023-04-11T08:12:02.648Z,13.77
2023-04-11T08:14:29.143Z,12.69
2023-04-11T08:16:58.642Z,13.40
2023-04-11T08:19:25.403Z,12.44
2023-04-11T08:21:52.851Z,12.58
2023-04-11T08:24:19.675Z,12.93
2023-04-11T08:26:46.546Z,12.20
2023-04-11T08:29:13.091Z,12.23
2023-04-11T08:31:44.560Z,12.40
2023-04-11T08:34:11.484Z,12.28
2023-04-11T08:36:38.106Z,11.94
2023-04-11T08:39:04.612Z,11.04
2023-04-11T08:41:31.553Z,9.91
2023-04-11T08:44:01.289Z,9.54
2023-04-11T08:46:32.393Z,10.06
2023-04-11T08:48:59.102Z,10.55
2023-04-11T08:51:27.598Z,10.72
2023-04-11T08:53:55.325Z,10.50
2023-04-11T08:56:22.125Z,10.00
2023-04-11T08:58:48.978Z,9.98
2023-04-11T09:01:27.032Z,10.85
2023-04-11T09:03:54.180Z,11.12
2023-04-11T09:06:21.034Z,12.05
2023-04-11T09:08:47.724Z,11.15
2023-04-11T09:11:14.292Z,12.67
2023-04-11T09:13:41.014Z,13.50
2023-04-11T09:16:09.074Z,12.68
2023-04-11T09:18:35.616Z,13.12
2023-04-11T09:21:06.195Z,14.09
2023-04-11T09:23:32.941Z,15.40
2023-04-11T09:25:59.641Z,14.86
2023-04-11T09:28:26.140Z,15.49
2023-04-11T09:30:53.719Z,15.24
2023-04-11T09:33:29.283Z,14.13
2023-04-11T09:35:57.110Z,14.81
2023-04-11T09:38:33.080Z,14.32
2023-04-11T09:41:06.617Z,14.07
2023-04-11T09:43:52.308Z,12.97
2023-04-11T09:46:21.082Z,12.71
2023-04-11T09:48:48.694Z,12.60
2023-04-11T09:51:28.024Z,14.63
2023-04-11T09:54:01.860Z,14.88
2023-04-11T09:56:29.341Z,14.63
2023-04-11T09:58:57.381Z,16.78
2023-04-11T10:01:24.730Z,17.42
2023-04-11T10:03:51.505Z,14.38
2023-04-11T10:06:39.878Z,15.00
2023-04-11T10:09:08.262Z,15.05
2023-04-11T10:11:35.862Z,17.43
2023-04-11T10:14:02.586Z,16.33
2023-04-11T10:16:32.692Z,16.00
2023-04-11T10:19:00.357Z,16.23
2023-04-11T10:21:33.088Z,16.12
2023-04-11T10:24:15.864Z,15.99
2023-04-11T10:26:50.787Z,16.01
2023-04-11T10:29:56.039Z,15.92
2023-04-11T10:32:23.518Z,14.44
2023-04-11T10:34:50.490Z,16.10
2023-04-11T10:37:18.354Z,16.43
2023-04-11T10:39:54.037Z,16.17
2023-04-11T10:42:30.568Z,18.42
2023-04-11T10:45:16.344Z,18.06
2023-04-11T10:47:43.351Z,16.87
2023-04-11T10:50:28.721Z,16.91
2023-04-11T10:52:57.679Z,15.63
2023-04-11T10:55:26.818Z,17.44
2023-04-11T10:58:08.566Z,15.65
2023-04-11T11:00:47.776Z,16.00
2023-04-11T11:03:15.750Z,16.20
2023-04-11T11:05:42.311Z,15.36
2023-04-11T11:08:08.897Z,17.47
2023-04-11T11:10:43.333Z,16.95
2023-04-11T11:13:10.449Z,16.24
2023-04-11T11:15:40.781Z,16.88
2023-04-11T11:18:08.872Z,16.44
2023-04-11T11:20:40.870Z,17.77
2023-04-11T11:23:09.146Z,16.16
2023-04-11T11:25:36.562Z,15.42
2023-04-11T11:28:06.833Z,16.88
2023-04-11T11:30:34.154Z,18.41
2023-04-11T11:33:14.334Z,17.56
2023-04-11T11:35:41.056Z,17.57
2023-04-11T11:38:07.815Z,16.84
2023-04-11T11:40:38.556Z,15.91
2023-04-11T11:43:05.167Z,15.27
2023-04-11T11:45:33.666Z,14.86
2023-04-11T11:48:00.317Z,16.89
2023-04-11T11:50:30.613Z,17.09
2023-04-11T11:53:14.220Z,17.39
2023-04-11T11:55:41.844Z,16.16
2023-04-11T11:58:08.876Z,17.01
2023-04-11T12:00:39.807Z,17.07
2023-04-11T12:03:07.257Z,15.31
2023-04-11T12:05:35.256Z,17.38
2023-04-11T12:08:04.425Z,16.86
2023-04-11T12:10:39.323Z,16.65
2023-04-11T12:13:20.172Z,16.93
2023-04-11T12:15:49.823Z,17.89
2023-04-11T12:18:16.755Z,16.68
2023-04-11T12:20:43.474Z,16.06
2023-04-11T12:23:10.086Z,15.13
2023-04-11T12:25:37.372Z,17.72
2023-04-11T12:28:03.980Z,17.47
2023-04-11T12:30:30.727Z,15.93
2023-04-11T12:32:57.322Z,15.48
2023-04-11T12:35:24.096Z,15.41
2023-04-11T12:37:51.107Z,16.60
2023-04-11T12:40:17.804Z,17.58
2023-04-11T12:42:56.739Z,18.89
2023-04-11T12:45:24.305Z,19.97
2023-04-11T12:47:51.111Z,20.22
2023-04-11T12:50:17.959Z,19.26
2023-04-11T12:52:45.711Z,17.97
2023-04-11T12:55:13.765Z,18.17
2023-04-11T12:57:41.072Z,20.12
2023-04-11T13:00:09.000Z,20.40
2023-04-11T13:02:43.304Z,20.27
2023-04-11T13:05:14.635Z,19.51
2023-04-11T13:07:41.954Z,20.02
2023-04-11T13:10:08.733Z,18.33
2023-04-11T13:12:41.188Z,18.04
2023-04-11T13:15:08.558Z,18.14
2023-04-11T13:17:35.371Z,17.87
2023-04-11T13:20:02.147Z,16.26
2023-04-11T13:22:28.736Z,16.45
2023-04-11T13:24:58.181Z,15.87
2023-04-11T13:27:24.802Z,15.77
2023-04-11T13:29:51.426Z,15.71
2023-04-11T13:32:18.279Z,15.40
2023-04-11T13:34:44.845Z,15.25
2023-04-11T13:37:12.006Z,14.84
2023-04-11T13:39:38.629Z,14.80
2023-04-11T13:42:05.158Z,14.83
2023-04-11T13:44:32.800Z,14.51
2023-04-11T13:47:03.248Z,14.45
2023-04-11T13:49:29.896Z,14.23
2023-04-11T13:51:56.939Z,14.57
2023-04-11T13:54:23.683Z,14.22
2023-04-11T13:56:50.828Z,14.50
2023-04-11T13:59:17.389Z,13.77
2023-04-11T14:01:44.313Z,13.88
2023-04-11T14:04:11.996Z,13.55
2023-04-11T14:06:39.124Z,13.44
2023-04-11T14:09:08.709Z,13.05
2023-04-11T14:11:35.969Z,12.65
2023-04-11T14:14:02.468Z,12.04
2023-04-11T14:16:29.211Z,11.72
2023-04-11T14:18:55.911Z,11.44
2023-04-11T14:21:22.421Z,11.49
2023-04-11T14:23:48.968Z,10.94
2023-04-11T14:26:15.610Z,10.79
2023-04-11T14:28:42.188Z,10.64
2023-04-11T14:31:09.713Z,10.27
2023-04-11T14:33:36.426Z,9.99
2023-04-11T14:36:03.046Z,9.79
2023-04-11T14:38:30.194Z,10.08
2023-04-11T14:40:56.769Z,9.98
2023-04-11T14:43:23.645Z,9.94
2023-04-11T14:45:50.886Z,10.20
2023-04-11T14:48:17.828Z,10.34
2023-04-11T14:50:44.256Z,9.96
2023-04-11T14:53:14.291Z,9.90
2023-04-11T14:55:42.762Z,9.73
2023-04-11T14:58:10.087Z,9.47
2023-04-11T15:00:36.784Z,9.70
2023-04-11T15:03:06.717Z,10.03
2023-04-11T15:05:33.737Z,10.40
2023-04-11T15:08:01.051Z,9.97
2023-04-11T15:10:27.532Z,10.02
2023-04-11T15:12:56.615Z,9.86
2023-04-11T15:15:23.408Z,9.35
2023-04-11T15:18:09.911Z,9.61
2023-04-11T15:20:40.620Z,10.17
2023-04-11T15:23:07.245Z,10.79
2023-04-11T15:25:33.634Z,11.01
2023-04-11T15:28:00.192Z,11.28
2023-04-11T15:30:26.652Z,11.04
2023-04-11T15:32:53.214Z,11.12
2023-04-11T15:35:25.028Z,10.87
2023-04-11T15:37:51.903Z,11.06
2023-04-11T15:40:18.775Z,10.90
2023-04-11T15:42:45.290Z,10.70
2023-04-11T15:45:11.998Z,10.74
2023-04-11T15:47:38.897Z,10.90
2023-04-11T15:50:05.750Z,10.91
2023-04-11T15:52:32.299Z,10.58
2023-04-11T15:54:58.686Z,10.64
2023-04-11T15:57:27.647Z,10.68
2023-04-11T15:59:54.321Z,10.71
2023-04-11T16:02:21.043Z,10.50
2023-04-11T16:04:50.061Z,10.58
2023-04-11T16:07:19.623Z,10.64
2023-04-11T16:09:47.000Z,10.59
2023-04-11T16:12:13.895Z,10.54
2023-04-11T16:14:40.480Z,10.50
2023-04-11T16:17:07.124Z,10.49
2023-04-11T16:19:33.960Z,10.52
2023-04-11T16:22:00.945Z,10.61
2023-04-11T16:24:30.572Z,10.87
2023-04-11T16:26:57.565Z,10.78
2023-04-11T16:29:25.410Z,10.80
2023-04-11T16:31:52.245Z,10.78
2023-04-11T16:34:18.913Z,10.68
2023-04-11T16:36:45.779Z,10.77
2023-04-11T16:39:12.535Z,10.68
2023-04-11T16:41:39.038Z,10.76
2023-04-11T16:44:06.269Z,10.76
2023-04-11T16:46:32.888Z,10.69
2023-04-11T16:48:59.404Z,10.70
2023-04-11T16:51:26.138Z,10.58
2023-04-11T16:54:00.764Z,10.48
2023-04-11T16:56:29.047Z,10.56
2023-04-11T16:58:56.197Z,10.59
2023-04-11T17:01:22.943Z,10.64
2023-04-11T17:03:52.464Z,10.62
2023-04-11T17:06:22.457Z,10.55
2023-04-11T17:08:49.079Z,10.53
2023-04-11T17:11:15.708Z,10.51
2023-04-11T17:13:45.395Z,10.58
2023-04-11T17:16:14.750Z,10.62
2023-04-11T17:18:41.259Z,10.59
2023-04-11T17:21:07.897Z,10.61
2023-04-11T17:23:42.960Z,10.51
2023-04-11T17:26:10.992Z,10.61
2023-04-11T17:28:38.060Z,10.54
2023-04-11T17:31:14.745Z,10.39
2023-04-11T17:33:41.735Z,10.42
2023-04-11T17:36:09.041Z,10.30
2023-04-11T17:38:36.749Z,10.25
2023-04-11T17:41:13.683Z,10.44
2023-04-11T17:43:41.476Z,10.19
2023-04-11T17:46:09.504Z,10.27
2023-04-11T17:48:36.387Z,10.15
2023-04-11T17:51:08.707Z,10.15
2023-04-11T17:53:35.308Z,10.09
2023-04-11T17:56:06.065Z,9.96
2023-04-11T17:58:32.831Z,9.70
2023-04-11T18:01:00.198Z,9.57
2023-04-11T18:03:27.034Z,9.47
2023-04-11T18:05:54.935Z,9.22
2023-04-11T18:08:28.734Z,9.11
2023-04-11T18:11:04.322Z,8.86
2023-04-11T18:13:31.738Z,8.72
2023-04-11T18:15:58.335Z,8.52
2023-04-11T18:18:25.535Z,8.49
2023-04-11T18:20:52.227Z,8.33
2023-04-11T18:23:18.943Z,8.20
2023-04-11T18:25:45.453Z,8.14
2023-04-11T18:28:12.068Z,8.04
2023-04-11T18:30:38.911Z,7.90
2023-04-11T18:33:05.656Z,7.85
2023-04-11T18:35:32.587Z,7.62
2023-04-11T18:38:00.361Z,7.52
2023-04-11T18:40:28.127Z,7.41
2023-04-11T18:42:56.097Z,7.37
2023-04-11T18:45:25.844Z,7.27
2023-04-11T18:47:52.918Z,7.17
2023-04-11T18:50:20.163Z,7.18
2023-04-11T18:52:50.385Z,7.05
2023-04-11T18:55:18.806Z,7.01
2023-04-11T18:57:48.301Z,6.91
2023-04-11T19:00:18.190Z,6.85
2023-04-11T19:02:46.751Z,6.72
2023-04-11T19:05:18.926Z,6.66
2023-04-11T19:07:45.899Z,6.70
2023-04-11T19:10:13.100Z,6.57
2023-04-11T19:12:39.660Z,6.54
2023-04-11T19:15:08.189Z,6.54
2023-04-11T19:17:35.400Z,6.44
2023-04-11T19:20:06.986Z,6.38
2023-04-11T19:22:34.637Z,6.34
2023-04-11T19:25:01.275Z,6.30
2023-04-11T19:27:28.159Z,6.22
2023-04-11T19:29:55.104Z,6.18
2023-04-11T19:32:21.895Z,6.17
2023-04-11T19:34:49.719Z,6.14
2023-04-11T19:37:16.885Z,6.08
2023-04-11T19:39:43.948Z,6.08
2023-04-11T19:42:10.751Z,6.01
2023-04-11T19:44:37.885Z,5.95
2023-04-11T19:47:04.670Z,5.85
2023-04-11T19:49:31.436Z,5.75
2023-04-11T19:51:58.117Z,5.76
2023-04-11T19:54:25.288Z,5.72
2023-04-11T19:56:54.892Z,5.70
2023-04-11T19:59:21.769Z,5.64
2023-04-11T20:01:48.544Z,5.57
2023-04-11T20:04:16.109Z,5.79
2023-04-11T20:06:44.268Z,5.64
2023-04-11T20:09:11.921Z,5.61
2023-04-11T20:11:38.940Z,5.54
2023-04-11T20:14:05.441Z,5.54
2023-04-11T20:16:32.461Z,5.42
2023-04-11T20:18:59.054Z,5.41
2023-04-11T20:21:34.880Z,5.37
2023-04-11T20:24:03.411Z,5.39
2023-04-11T20:26:30.210Z,5.38
2023-04-11T20:29:00.156Z,5.32
2023-04-11T20:31:26.859Z,5.35
2023-04-11T20:33:53.493Z,5.28
2023-04-11T20:36:20.010Z,5.24
2023-04-11T20:38:46.900Z,5.13
2023-04-11T20:41:13.704Z,5.11
2023-04-11T20:43:42.226Z,5.04
2023-04-11T20:46:09.105Z,4.93
2023-04-11T20:48:36.022Z,4.92
2023-04-11T20:51:02.616Z,4.82
2023-04-11T20:53:29.457Z,4.82
2023-04-11T20:55:56.209Z,4.80
2023-04-11T20:58:23.013Z,4.75
2023-04-11T21:00:49.600Z,4.75
2023-04-11T21:03:16.904Z,4.76
2023-04-11T21:05:44.556Z,4.74
2023-04-11T21:08:14.106Z,4.65
2023-04-11T21:10:41.722Z,4.56
2023-04-11T21:13:08.605Z,4.47
2023-04-11T21:15:35.231Z,4.43
2023-04-11T21:18:01.902Z,4.36
2023-04-11T21:20:29.157Z,4.31
2023-04-11T21:22:57.436Z,4.26
2023-04-11T21:25:24.416Z,4.24
2023-04-11T21:27:51.157Z,4.31
2023-04-11T21:30:17.748Z,4.36
2023-04-11T21:32:44.649Z,4.26
2023-04-11T21:35:11.416Z,4.16
2023-04-11T21:37:38.109Z,4.17
2023-04-11T21:40:04.812Z,4.07
2023-04-11T21:42:31.413Z,4.09
2023-04-11T21:44:57.946Z,4.08
2023-04-11T21:47:24.703Z,4.07
2023-04-11T21:49:51.707Z,4.03
2023-04-11T21:52:18.283Z,3.90
2023-04-11T21:54:45.228Z,3.91
2023-04-11T21:57:11.718Z,3.89
2023-04-11T21:59:38.450Z,3.89
2023-04-11T22:02:05.268Z,3.86
2023-04-11T22:04:39.170Z,3.69
2023-04-11T22:07:18.384Z,3.57
2023-04-11T22:09:46.698Z,3.61
2023-04-11T22:12:14.586Z,3.54
2023-04-11T22:14:44.263Z,3.51
2023-04-11T22:17:10.853Z,3.55
2023-04-11T22:19:37.394Z,3.54
2023-04-11T22:22:08.328Z,3.50
2023-04-11T22:24:35.016Z,3.62
2023-04-11T22:27:04.247Z,3.63
2023-04-11T22:29:31.302Z,3.67
2023-04-11T22:31:59.817Z,3.57
2023-04-11T22:34:29.949Z,3.40
2023-04-11T22:37:00.247Z,3.27
2023-04-11T22:39:26.829Z,3.29
2023-04-11T22:41:54.047Z,3.28
2023-04-11T22:44:20.858Z,3.15
2023-04-11T22:47:00.422Z,3.14
2023-04-11T22:49:27.092Z,3.20
2023-04-11T22:51:59.229Z,3.31
2023-04-11T22:54:27.137Z,3.26
2023-04-11T22:56:56.653Z,3.20
2023-04-11T22:59:26.460Z,3.14
2023-04-11T23:01:53.386Z,3.22
2023-04-11T23:04:20.930Z,3.08
2023-04-11T23:06:51.456Z,3.08
2023-04-11T23:09:18.512Z,2.99
2023-04-11T23:11:45.875Z,3.01
2023-04-11T23:14:16.832Z,3.03
2023-04-11T23:16:43.825Z,2.97
2023-04-11T23:19:10.748Z,2.86
2023-04-11T23:21:38.074Z,2.84
2023-04-11T23:24:06.903Z,2.91
2023-04-11T23:26:33.795Z,2.99
2023-04-11T23:29:01.273Z,3.17
2023-04-11T23:31:28.390Z,2.99
2023-04-11T23:33:55.784Z,3.05
2023-04-11T23:36:23.160Z,3.25
2023-04-11T23:38:49.752Z,3.22
2023-04-11T23:41:16.131Z,3.30
2023-04-11T23:43:42.574Z,3.16
2023-04-11T23:46:10.081Z,3.12
2023-04-11T23:48:37.181Z,3.20
2023-04-11T23:51:04.173Z,3.18
2023-04-11T23:53:31.784Z,3.35
2023-04-11T23:55:58.498Z,3.48
2023-04-11T23:58:24.996Z,3.39
